createdAt,value
2022-08-20T00:02:07.910Z,7.15
2022-08-20T00:04:34.554Z,6.32
2022-08-20T00:07:01.195Z,7.18
2022-08-20T00:09:27.820Z,6.82
2022-08-20T00:11:56.668Z,6.68
2022-08-20T00:14:23.436Z,6.80
2022-08-20T00:16:50.101Z,7.97
2022-08-20T00:19:16.800Z,8.23
2022-08-20T00:21:44.702Z,7.78
2022-08-20T00:24:13.575Z,7.35
2022-08-20T00:26:51.674Z,8.95
2022-08-20T00:29:20.305Z,9.23
2022-08-20T00:31:47.183Z,9.07
2022-08-20T00:34:13.889Z,8.43
2022-08-20T00:36:40.523Z,10.35
2022-08-20T00:39:07.166Z,8.48
2022-08-20T00:41:33.864Z,8.55
2022-08-20T00:44:12.116Z,9.85
2022-08-20T00:46:39.101Z,9.68
2022-08-20T00:49:07.790Z,9.20
2022-08-20T00:51:41.493Z,9.75
2022-08-20T00:54:19.769Z,9.43
2022-08-20T00:56:48.178Z,9.30
2022-08-20T00:59:16.424Z,10.35
2022-08-20T01:01:55.420Z,9.85
2022-08-20T01:04:29.752Z,10.02
2022-08-20T01:06:56.403Z,8.75
2022-08-20T01:09:33.323Z,10.27
2022-08-20T01:12:10.321Z,10.57
2022-08-20T01:14:36.968Z,10.65
2022-08-20T01:17:06.370Z,10.65
2022-08-20T01:22:07.506Z,9.73
2022-08-20T01:24:38.185Z,10.00
2022-08-20T01:27:05.237Z,10.63
2022-08-20T01:29:35.902Z,10.20
2022-08-20T01:32:02.923Z,9.50
2022-08-20T01:34:29.594Z,11.38
2022-08-20T01:36:57.109Z,9.40
2022-08-20T01:39:32.211Z,11.20
2022-08-20T01:42:20.348Z,9.10
2022-08-20T01:44:47.272Z,9.20
2022-08-20T01:47:27.998Z,9.77
2022-08-20T01:50:04.324Z,9.82
2022-08-20T01:52:48.757Z,9.57
2022-08-20T01:55:15.434Z,9.57
2022-08-20T01:57:42.075Z,8.63
2022-08-20T02:00:19.894Z,8.02
2022-08-20T02:02:47.036Z,8.20
2022-08-20T02:05:13.698Z,9.57
2022-08-20T02:07:40.368Z,7.22
2022-08-20T02:10:08.152Z,8.80
2022-08-20T02:12:34.811Z,8.43
2022-08-20T02:15:02.167Z,6.90
2022-08-20T02:17:28.995Z,8.25
2022-08-20T02:19:59.792Z,7.70
2022-08-20T02:22:50.169Z,7.68
2022-08-20T02:25:17.513Z,7.78
2022-08-20T02:27:45.069Z,7.40
2022-08-20T02:30:27.415Z,7.53
2022-08-20T02:32:55.326Z,7.78
2022-08-20T02:35:23.209Z,8.13
2022-08-20T02:37:50.032Z,7.55
2022-08-20T02:40:18.406Z,7.95
2022-08-20T02:42:54.479Z,7.65
2022-08-20T02:45:21.293Z,6.68
2022-08-20T02:47:48.485Z,7.63
2022-08-20T02:50:17.931Z,7.50
2022-08-20T02:52:51.491Z,7.93
2022-08-20T02:55:25.316Z,8.40
2022-08-20T02:57:59.147Z,7.68
2022-08-20T03:00:26.507Z,8.27
2022-08-20T03:02:53.170Z,9.05
2022-08-20T03:05:19.869Z,9.52
2022-08-20T03:07:48.592Z,7.53
2022-08-20T03:10:15.316Z,8.93
2022-08-20T03:12:42.198Z,8.55
2022-08-20T03:15:17.309Z,8.45
2022-08-20T03:20:11.849Z,7.90
2022-08-20T03:22:38.527Z,8.85
2022-08-20T03:25:05.605Z,8.50
2022-08-20T03:27:36.240Z,9.73
2022-08-20T03:30:07.271Z,9.70
2022-08-20T03:32:34.012Z,8.75
2022-08-20T03:35:00.773Z,9.55
2022-08-20T03:37:33.968Z,9.00
2022-08-20T03:40:01.657Z,9.68
2022-08-20T03:42:28.372Z,10.52
2022-08-20T03:44:59.108Z,10.93
2022-08-20T03:47:26.640Z,9.75
2022-08-20T03:49:57.476Z,11.00
2022-08-20T03:52:24.230Z,10.60
2022-08-20T03:54:50.919Z,10.52
2022-08-20T03:57:17.598Z,10.10
2022-08-20T03:59:44.246Z,11.70
2022-08-20T04:02:11.848Z,11.48
2022-08-20T04:04:39.460Z,11.60
2022-08-20T04:07:24.882Z,11.50
2022-08-20T04:09:56.535Z,11.90
2022-08-20T04:12:23.839Z,12.20
2022-08-20T04:14:51.109Z,12.32
2022-08-20T04:17:18.878Z,11.80
2022-08-20T04:19:45.925Z,10.68
2022-08-20T04:22:13.010Z,12.05
2022-08-20T04:24:43.454Z,11.70
2022-08-20T04:27:10.366Z,11.40
2022-08-20T04:29:37.087Z,12.02
2022-08-20T04:32:07.059Z,11.63
2022-08-20T04:34:34.748Z,11.23
2022-08-20T04:37:01.457Z,9.48
2022-08-20T04:39:28.101Z,11.02
2022-08-20T04:41:54.779Z,10.45
2022-08-20T04:44:21.426Z,11.75
2022-08-20T04:46:48.252Z,11.05
2022-08-20T04:49:14.934Z,10.73
2022-08-20T04:51:41.621Z,11.75
2022-08-20T04:54:08.264Z,11.80
2022-08-20T04:56:35.347Z,11.15
2022-08-20T04:59:04.321Z,11.63
2022-08-20T05:01:30.968Z,11.70
2022-08-20T05:03:57.755Z,11.75
2022-08-20T05:06:27.500Z,12.55
2022-08-20T05:08:54.925Z,10.50
2022-08-20T05:11:34.881Z,10.98
2022-08-20T05:14:08.084Z,11.25
2022-08-20T05:16:35.710Z,11.32
2022-08-20T05:19:02.410Z,11.95
2022-08-20T05:21:29.057Z,12.95
2022-08-20T05:23:55.718Z,12.15
2022-08-20T05:26:23.512Z,12.55
2022-08-20T05:28:57.703Z,12.57
2022-08-20T05:31:31.475Z,11.55
2022-08-20T05:34:04.247Z,12.50
2022-08-20T05:36:30.943Z,11.70
2022-08-20T05:38:57.652Z,13.40
2022-08-20T05:41:34.546Z,12.13
2022-08-20T05:44:01.557Z,12.80
2022-08-20T05:46:29.653Z,13.00
2022-08-20T05:48:59.555Z,12.93
2022-08-20T05:51:30.173Z,13.05
2022-08-20T05:53:57.422Z,12.75
2022-08-20T05:58:54.310Z,13.18
2022-08-20T06:01:21.130Z,12.48
2022-08-20T06:03:47.920Z,14.35
2022-08-20T06:06:18.072Z,13.68
2022-08-20T06:08:48.320Z,14.18
2022-08-20T06:11:16.891Z,13.57
2022-08-20T06:13:43.545Z,13.98
2022-08-20T06:16:10.293Z,14.07
2022-08-20T06:18:38.580Z,14.00
2022-08-20T06:21:06.432Z,14.10
2022-08-20T06:23:43.642Z,13.40
2022-08-20T06:26:27.303Z,14.60
2022-08-20T06:29:01.553Z,13.18
2022-08-20T06:31:28.328Z,13.90
2022-08-20T06:33:55.136Z,13.23
2022-08-20T06:36:21.925Z,14.98
2022-08-20T06:38:48.686Z,14.95
2022-08-20T06:41:15.379Z,15.75
2022-08-20T06:43:42.040Z,14.88
2022-08-20T06:46:08.756Z,13.95
2022-08-20T06:48:35.442Z,15.13
2022-08-20T06:51:02.157Z,14.95
2022-08-20T06:53:29.038Z,14.35
2022-08-20T06:55:56.212Z,14.65
2022-08-20T06:58:37.266Z,13.25
2022-08-20T07:01:10.284Z,14.30
2022-08-20T07:03:40.342Z,12.45
2022-08-20T07:06:20.800Z,11.63
2022-08-20T07:08:49.696Z,12.77
2022-08-20T07:11:18.843Z,12.10
2022-08-20T07:13:45.515Z,12.63
2022-08-20T07:16:14.342Z,10.40
2022-08-20T07:18:44.087Z,11.00
2022-08-20T07:21:10.811Z,10.57
2022-08-20T07:23:37.607Z,10.52
2022-08-20T07:26:07.292Z,11.18
2022-08-20T07:28:34.047Z,9.70
2022-08-20T07:31:00.796Z,12.05
2022-08-20T07:33:40.031Z,11.23
2022-08-20T07:36:07.005Z,8.43
2022-08-20T07:38:33.901Z,8.02
2022-08-20T07:41:10.729Z,5.03
2022-08-20T07:43:37.404Z,3.72
2022-08-20T07:46:04.160Z,3.40
2022-08-20T07:48:32.466Z,4.15
2022-08-20T07:51:01.936Z,3.63
2022-08-20T07:53:31.238Z,3.35
2022-08-20T07:56:02.465Z,2.65
2022-08-20T07:58:33.533Z,2.78
2022-08-20T08:01:01.041Z,2.90
2022-08-20T08:03:40.546Z,2.80
2022-08-20T08:06:14.647Z,2.30
2022-08-20T08:11:10.691Z,1.90
2022-08-20T08:13:40.208Z,1.83
2022-08-20T08:16:07.769Z,1.80
2022-08-20T08:18:38.606Z,1.83
2022-08-20T08:21:06.234Z,1.75
2022-08-20T08:23:32.993Z,1.50
2022-08-20T08:25:59.681Z,1.45
2022-08-20T08:28:36.613Z,1.25
2022-08-20T08:31:03.329Z,1.25
2022-08-20T08:33:30.688Z,1.40
2022-08-20T08:36:01.649Z,1.85
2022-08-20T08:38:28.410Z,1.10
2022-08-20T08:40:59.993Z,1.10
2022-08-20T08:43:31.782Z,1.17
2022-08-20T08:46:07.256Z,1.15
2022-08-20T08:51:02.385Z,1.30
2022-08-20T08:53:32.528Z,1.40
2022-08-20T08:56:00.241Z,0.90
2022-08-20T08:58:26.931Z,1.35
2022-08-20T09:00:56.539Z,1.52
2022-08-20T09:03:29.713Z,0.98
2022-08-20T09:05:58.910Z,1.27
2022-08-20T09:08:38.529Z,1.35
2022-08-20T09:11:06.603Z,1.60
2022-08-20T09:13:33.423Z,1.38
2022-08-20T09:16:00.233Z,1.98
2022-08-20T09:18:26.930Z,1.23
2022-08-20T09:20:53.590Z,1.38
2022-08-20T09:23:22.268Z,1.42
2022-08-20T09:25:48.914Z,1.45
2022-08-20T09:28:15.547Z,1.70
2022-08-20T09:30:42.665Z,1.27
2022-08-20T09:33:11.260Z,1.50
2022-08-20T09:35:38.220Z,1.25
2022-08-20T09:38:04.886Z,1.83
2022-08-20T09:40:31.641Z,1.27
2022-08-20T09:42:58.479Z,1.60
2022-08-20T09:45:25.237Z,1.45
2022-08-20T09:47:56.559Z,1.10
2022-08-20T09:50:24.947Z,1.30
2022-08-20T09:52:51.596Z,1.80
2022-08-20T09:55:24.702Z,1.40
2022-08-20T09:57:51.364Z,1.60
2022-08-20T10:00:18.286Z,1.33
2022-08-20T10:02:58.238Z,1.30
2022-08-20T10:05:24.925Z,1.40
2022-08-20T10:07:52.871Z,1.10
2022-08-20T10:10:19.594Z,1.45
2022-08-20T10:12:46.293Z,1.15
2022-08-20T10:15:13.174Z,1.40
2022-08-20T10:17:40.834Z,1.48
2022-08-20T10:20:08.483Z,1.20
2022-08-20T10:22:35.468Z,1.45
2022-08-20T10:25:02.198Z,1.30
2022-08-20T10:27:28.843Z,1.45
2022-08-20T10:29:55.487Z,1.45
2022-08-20T10:32:22.238Z,1.60
2022-08-20T10:34:48.872Z,1.27
2022-08-20T10:37:17.291Z,1.38
2022-08-20T10:39:44.259Z,1.70
2022-08-20T10:42:11.163Z,1.30
2022-08-20T10:44:38.005Z,1.10
2022-08-20T10:47:34.221Z,1.33
2022-08-20T10:50:02.031Z,1.30
2022-08-20T10:52:28.880Z,1.40
2022-08-20T10:54:55.741Z,1.50
2022-08-20T10:57:27.049Z,1.27
2022-08-20T10:59:54.761Z,1.17
2022-08-20T11:02:21.800Z,1.38
2022-08-20T11:04:48.740Z,1.20
2022-08-20T11:07:55.174Z,1.25
2022-08-20T11:12:43.602Z,1.40
2022-08-20T11:15:13.107Z,1.70
2022-08-20T11:17:40.838Z,1.30
2022-08-20T11:20:08.556Z,1.48
2022-08-20T11:22:35.363Z,1.38
2022-08-20T11:25:02.428Z,1.42
2022-08-20T11:27:31.245Z,1.50
2022-08-20T11:29:57.965Z,1.38
2022-08-20T11:32:24.825Z,1.70
2022-08-20T11:34:51.831Z,1.63
2022-08-20T11:37:19.670Z,1.50
2022-08-20T11:39:46.476Z,1.38
2022-08-20T11:42:13.171Z,1.35
2022-08-20T11:44:39.903Z,1.50
2022-08-20T11:47:07.052Z,1.30
2022-08-20T11:49:34.774Z,1.48
2022-08-20T11:52:07.370Z,1.63
2022-08-20T11:54:34.034Z,1.20
2022-08-20T11:57:00.703Z,1.70
2022-08-20T11:59:27.578Z,1.63
2022-08-20T12:02:03.176Z,1.38
2022-08-20T12:04:30.708Z,1.90
2022-08-20T12:07:08.531Z,1.23
2022-08-20T12:09:35.193Z,1.67
2022-08-20T12:12:02.003Z,1.40
2022-08-20T12:14:28.675Z,1.50
2022-08-20T12:16:55.329Z,1.35
2022-08-20T12:19:25.067Z,1.55
2022-08-20T12:21:51.782Z,1.60
2022-08-20T12:24:18.433Z,1.33
2022-08-20T12:26:45.125Z,1.55
2022-08-20T12:29:11.766Z,1.45
2022-08-20T12:31:38.443Z,1.10
2022-08-20T12:34:05.098Z,1.30
2022-08-20T12:36:42.939Z,1.30
2022-08-20T12:39:09.685Z,1.50
2022-08-20T12:41:38.557Z,1.35
2022-08-20T12:44:12.693Z,1.20
2022-08-20T12:46:40.161Z,1.05
2022-08-20T12:49:09.158Z,1.40
2022-08-20T12:51:35.892Z,1.33
2022-08-20T12:54:04.881Z,1.67
2022-08-20T12:56:34.128Z,1.08
2022-08-20T12:59:00.821Z,1.10
2022-08-20T13:01:27.518Z,1.20
2022-08-20T13:03:54.224Z,1.10
2022-08-20T13:06:20.966Z,1.17
2022-08-20T13:08:49.450Z,1.50
2022-08-20T13:11:16.124Z,1.20
2022-08-20T13:13:42.798Z,1.30
2022-08-20T13:16:09.446Z,1.08
2022-08-20T13:18:36.170Z,1.08
2022-08-20T13:21:02.916Z,1.25
2022-08-20T13:23:29.586Z,1.10
2022-08-20T13:25:56.294Z,1.40
2022-08-20T13:28:24.024Z,1.48
2022-08-20T13:30:50.749Z,1.42
2022-08-20T13:33:17.441Z,0.98
2022-08-20T13:35:44.139Z,1.35
2022-08-20T13:38:10.805Z,1.20
2022-08-20T13:40:37.447Z,1.00
2022-08-20T13:43:07.169Z,1.20
2022-08-20T13:45:34.939Z,1.25
2022-08-20T13:48:01.598Z,1.13
2022-08-20T13:50:28.248Z,1.15
2022-08-20T13:52:56.141Z,1.20
2022-08-20T13:55:24.327Z,1.10
2022-08-20T13:57:51.223Z,1.52
2022-08-20T14:00:20.901Z,0.95
2022-08-20T14:02:57.910Z,1.00
2022-08-20T14:05:24.738Z,0.75
2022-08-20T14:07:51.410Z,1.02
2022-08-20T14:10:20.917Z,0.90
2022-08-20T14:12:49.722Z,0.85
2022-08-20T14:15:16.741Z,0.88
2022-08-20T14:17:49.274Z,0.90
2022-08-20T14:20:17.844Z,0.60
2022-08-20T14:22:44.520Z,0.90
2022-08-20T14:25:12.496Z,1.13
2022-08-20T14:27:39.195Z,1.02
2022-08-20T14:30:09.076Z,0.65
2022-08-20T14:32:35.777Z,0.73
2022-08-20T14:35:02.469Z,0.73
2022-08-20T14:37:37.681Z,0.63
2022-08-20T14:40:12.705Z,0.63
2022-08-20T14:42:39.524Z,0.93
2022-08-20T14:45:07.237Z,0.93
2022-08-20T14:47:55.200Z,0.82
2022-08-20T14:50:31.117Z,1.30
2022-08-20T14:52:58.419Z,0.50
2022-08-20T14:55:27.193Z,0.50
2022-08-20T14:57:54.137Z,0.93
2022-08-20T15:00:25.974Z,0.70
2022-08-20T15:02:52.872Z,0.70
2022-08-20T15:05:19.892Z,0.57
2022-08-20T15:07:48.068Z,0.55
2022-08-20T15:10:20.056Z,0.68
2022-08-20T15:12:46.809Z,0.77
2022-08-20T15:15:15.885Z,0.63
2022-08-20T15:18:03.164Z,0.80
2022-08-20T15:20:31.392Z,0.52
2022-08-20T15:22:58.260Z,0.60
2022-08-20T15:25:26.226Z,0.60
2022-08-20T15:27:55.967Z,0.85
2022-08-20T15:30:28.074Z,0.57
2022-08-20T15:32:58.110Z,1.15
2022-08-20T15:35:25.434Z,0.82
2022-08-20T15:37:54.699Z,0.70
2022-08-20T15:40:27.062Z,0.70
2022-08-20T15:42:54.725Z,0.52
2022-08-20T15:45:21.845Z,0.70
2022-08-20T15:47:54.143Z,0.98
2022-08-20T15:50:42.489Z,0.40
2022-08-20T15:53:11.186Z,0.77
2022-08-20T15:55:40.194Z,0.80
2022-08-20T15:58:14.708Z,0.80
2022-08-20T16:00:54.329Z,0.60
2022-08-20T16:03:39.319Z,0.60
2022-08-20T16:06:13.674Z,0.95
2022-08-20T16:09:03.509Z,0.60
2022-08-20T16:11:45.170Z,0.60
2022-08-20T16:14:17.362Z,0.80
2022-08-20T16:16:49.846Z,0.65
2022-08-20T16:19:25.338Z,0.60
2022-08-20T16:21:52.863Z,0.85
2022-08-20T16:24:19.649Z,1.40
2022-08-20T16:27:07.799Z,0.73
2022-08-20T16:29:56.138Z,0.60
2022-08-20T16:32:31.738Z,0.80
2022-08-20T16:35:30.054Z,0.40
2022-08-20T16:41:12.375Z,0.70
2022-08-20T16:44:03.416Z,0.80
2022-08-20T16:46:38.093Z,1.10
2022-08-20T16:49:09.587Z,1.10
2022-08-20T16:51:47.090Z,0.95
2022-08-20T16:54:16.896Z,0.98
2022-08-20T16:56:48.005Z,1.02
2022-08-20T16:59:24.552Z,1.15
2022-08-20T17:02:10.841Z,1.20
2022-08-20T17:04:59.398Z,1.00
2022-08-20T17:07:50.658Z,0.80
2022-08-20T17:10:25.460Z,1.17
2022-08-20T17:13:00.427Z,0.88
2022-08-20T17:15:29.384Z,1.00
2022-08-20T17:17:56.093Z,1.02
2022-08-20T17:20:29.286Z,0.85
2022-08-20T17:23:11.141Z,0.90
2022-08-20T17:25:40.013Z,1.00
2022-08-20T17:28:23.937Z,0.90
2022-08-20T17:30:50.735Z,1.00
2022-08-20T17:33:26.177Z,1.10
2022-08-20T17:38:38.342Z,0.85
2022-08-20T17:41:13.932Z,0.93
2022-08-20T17:43:47.752Z,0.77
2022-08-20T17:46:15.328Z,0.73
2022-08-20T17:48:46.785Z,0.85
2022-08-20T17:51:36.763Z,1.00
2022-08-20T17:54:12.625Z,1.00
2022-08-20T17:56:40.386Z,0.95
2022-08-20T17:59:32.445Z,0.88
2022-08-20T18:02:05.210Z,1.02
2022-08-20T18:04:31.899Z,0.80
2022-08-20T18:07:04.496Z,0.68
2022-08-20T18:09:46.507Z,0.90
2022-08-20T18:12:43.789Z,0.70
2022-08-20T18:15:31.161Z,1.00
2022-08-20T18:18:25.526Z,1.20
2022-08-20T18:21:06.194Z,1.00
2022-08-20T18:23:36.829Z,1.55
2022-08-20T18:26:09.463Z,1.00
2022-08-20T18:28:43.837Z,0.63
2022-08-20T18:31:10.507Z,1.10
2022-08-20T18:33:41.850Z,0.75
2022-08-20T18:36:14.305Z,0.93
2022-08-20T18:38:41.695Z,1.10
2022-08-20T18:41:12.621Z,0.77
2022-08-20T18:43:39.553Z,1.10
2022-08-20T18:46:22.725Z,0.90
2022-08-20T18:48:54.857Z,0.77
2022-08-20T18:51:28.805Z,1.00
2022-08-20T18:53:55.441Z,0.85
2022-08-20T18:56:40.275Z,1.10
2022-08-20T18:59:11.150Z,0.80
2022-08-20T19:01:38.111Z,1.30
2022-08-20T19:04:14.927Z,1.00
2022-08-20T19:06:57.306Z,0.90
2022-08-20T19:09:49.837Z,1.02
2022-08-20T19:12:52.102Z,1.30
2022-08-20T19:15:20.190Z,0.95
2022-08-20T19:17:57.432Z,0.90
2022-08-20T19:20:26.522Z,0.75
2022-08-20T19:22:54.572Z,0.98
2022-08-20T19:25:34.923Z,1.15
2022-08-20T19:28:06.145Z,1.10
2022-08-20T19:30:39.490Z,2.20
2022-08-20T19:33:06.406Z,1.00
2022-08-20T19:35:36.065Z,1.00
2022-08-20T19:38:03.109Z,1.27
2022-08-20T19:40:38.875Z,1.10
2022-08-20T19:43:06.985Z,1.00
2022-08-20T19:45:47.268Z,1.20
2022-08-20T19:48:32.612Z,1.40
2022-08-20T19:51:13.845Z,1.20
2022-08-20T19:53:46.190Z,1.30
2022-08-20T19:56:24.021Z,1.20
2022-08-20T19:59:08.402Z,1.50
2022-08-20T20:01:35.359Z,1.23
2022-08-20T20:04:03.899Z,1.40
2022-08-20T20:06:31.726Z,1.40
2022-08-20T20:09:00.833Z,1.63
2022-08-20T20:11:35.807Z,1.30
2022-08-20T20:14:14.554Z,1.50
2022-08-20T20:16:45.475Z,1.58
2022-08-20T20:19:28.580Z,1.83
2022-08-20T20:22:06.121Z,1.90
2022-08-20T20:24:45.776Z,1.77
2022-08-20T20:27:23.849Z,1.73
2022-08-20T20:29:50.500Z,1.67
2022-08-20T20:32:20.108Z,2.05
2022-08-20T20:34:57.272Z,1.65
2022-08-20T20:37:49.358Z,1.88
2022-08-20T20:40:25.343Z,1.98
2022-08-20T20:43:05.418Z,2.20
2022-08-20T20:45:39.904Z,1.85
2022-08-20T20:48:23.446Z,2.10
2022-08-20T20:50:50.506Z,2.10
2022-08-20T20:53:51.390Z,1.90
2022-08-20T20:56:29.910Z,1.83
2022-08-20T20:58:56.654Z,1.75
2022-08-20T21:01:38.576Z,1.50
2022-08-20T21:04:10.506Z,1.70
2022-08-20T21:06:37.193Z,1.63
2022-08-20T21:09:03.931Z,1.55
2022-08-20T21:11:30.604Z,1.50
2022-08-20T21:13:57.252Z,1.70
2022-08-20T21:16:23.944Z,1.67
2022-08-20T21:18:50.580Z,1.38
2022-08-20T21:21:17.243Z,1.50
2022-08-20T21:23:43.878Z,1.70
2022-08-20T21:26:10.590Z,1.50
2022-08-20T21:28:37.251Z,1.67
2022-08-20T21:31:03.939Z,1.85
2022-08-20T21:33:30.639Z,1.83
2022-08-20T21:35:57.289Z,1.90
2022-08-20T21:38:23.995Z,2.20
2022-08-20T21:40:50.861Z,1.98
2022-08-20T21:43:18.842Z,2.20
2022-08-20T21:45:45.704Z,1.95
2022-08-20T21:48:16.293Z,2.20
2022-08-20T21:50:42.941Z,2.20
2022-08-20T21:53:12.324Z,1.70
2022-08-20T21:55:39.929Z,2.22
2022-08-20T21:58:06.610Z,2.13
2022-08-20T22:00:53.668Z,2.47
2022-08-20T22:03:27.186Z,2.40
2022-08-20T22:05:58.150Z,2.47
2022-08-20T22:08:28.319Z,2.42
2022-08-20T22:10:55.793Z,2.47
2022-08-20T22:13:22.488Z,2.25
2022-08-20T22:15:50.413Z,2.45
2022-08-20T22:18:18.909Z,2.80
2022-08-20T22:20:45.596Z,2.55
2022-08-20T22:23:12.270Z,2.25
2022-08-20T22:25:39.010Z,2.40
2022-08-20T22:28:13.681Z,2.50
2022-08-20T22:30:42.384Z,2.40
2022-08-20T22:33:15.047Z,2.67
2022-08-20T22:35:44.744Z,2.72
2022-08-20T22:38:11.483Z,2.58
2022-08-20T22:40:38.264Z,2.40
2022-08-20T22:43:04.951Z,1.90
2022-08-20T22:45:31.738Z,2.88
2022-08-20T22:47:58.399Z,2.40
2022-08-20T22:50:25.105Z,2.60
2022-08-20T22:52:51.805Z,3.05
2022-08-20T22:55:18.709Z,2.67
2022-08-20T22:57:46.725Z,2.60
2022-08-20T23:00:16.012Z,2.30
2022-08-20T23:02:43.230Z,3.03
2022-08-20T23:05:13.420Z,2.95
2022-08-20T23:07:40.165Z,3.83
2022-08-20T23:10:07.005Z,4.50
2022-08-20T23:12:33.733Z,3.88
2022-08-20T23:15:00.407Z,3.72
2022-08-20T23:17:27.097Z,3.60
2022-08-20T23:19:53.856Z,3.50
2022-08-20T23:22:20.499Z,4.13
2022-08-20T23:24:47.192Z,3.35
2022-08-20T23:27:16.934Z,3.45
2022-08-20T23:29:43.618Z,3.08
2022-08-20T23:32:10.341Z,2.60
2022-08-20T23:34:37.043Z,3.17
2022-08-20T23:37:03.712Z,3.28
2022-08-20T23:39:30.364Z,3.05
2022-08-20T23:41:57.434Z,3.10
2022-08-20T23:44:26.655Z,2.53
2022-08-20T23:46:59.240Z,3.05
2022-08-20T23:49:26.468Z,3.58
2022-08-20T23:51:53.159Z,2.92
2022-08-20T23:54:19.809Z,3.22
2022-08-20T23:56:46.470Z,3.25
2022-08-20T23:59:13.135Z,3.30
